createdAt,value
2018-12-18T00:00:18.609Z,215.2
2018-12-18T00:01:18.614Z,215.1
2018-12-18T00:02:18.610Z,215
2018-12-18T00:03:18.607Z,215
2018-12-18T00:04:18.537Z,215
2018-12-18T00:05:18.581Z,215
2018-12-18T00:06:18.608Z,215
2018-12-18T00:07:18.687Z,215
2018-12-18T00:08:18.584Z,215
2018-12-18T00:09:18.530Z,215
2018-12-18T00:10:18.597Z,215
2018-12-18T00:11:18.600Z,215
2018-12-18T00:12:18.664Z,215
2018-12-18T00:13:18.604Z,226.4
2018-12-18T00:14:18.523Z,232.5
2018-12-18T00:15:18.554Z,229.4
2018-12-18T00:16:18.674Z,228.4
2018-12-18T00:17:18.653Z,221.4
2018-12-18T00:18:18.750Z,221.1
2018-12-18T00:19:18.592Z,222.7
2018-12-18T00:20:18.519Z,218
2018-12-18T00:21:18.597Z,216.4
2018-12-18T00:22:18.580Z,215.7
2018-12-18T00:23:18.650Z,215.3
2018-12-18T00:24:18.590Z,215.1
2018-12-18T00:25:18.521Z,215.1
2018-12-18T00:26:18.610Z,215
2018-12-18T00:27:19.027Z,215
2018-12-18T00:28:18.605Z,215
2018-12-18T00:29:18.590Z,215
2018-12-18T00:30:18.594Z,222.8
2018-12-18T00:31:18.536Z,230.7
2018-12-18T00:32:18.655Z,234.3
2018-12-18T00:33:18.601Z,236
2018-12-18T00:34:18.634Z,226.9
2018-12-18T00:35:18.567Z,220.4
2018-12-18T00:36:18.517Z,217.5
2018-12-18T00:37:18.582Z,216.2
2018-12-18T00:38:18.650Z,215.6
2018-12-18T00:39:18.612Z,215.3
2018-12-18T00:40:18.662Z,215.1
2018-12-18T00:41:18.518Z,222
2018-12-18T00:42:18.572Z,227.4
2018-12-18T00:43:18.565Z,232.3
2018-12-18T00:44:18.585Z,226.7
2018-12-18T00:45:18.670Z,222.4
2018-12-18T00:46:18.574Z,219.3
2018-12-18T00:47:18.526Z,217
2018-12-18T00:48:18.578Z,215.9
2018-12-18T00:49:18.608Z,215.4
2018-12-18T00:50:18.662Z,215.2
2018-12-18T00:51:18.573Z,215.1
2018-12-18T00:52:18.550Z,215
2018-12-18T00:53:18.603Z,215
2018-12-18T00:54:18.675Z,215
2018-12-18T00:55:18.596Z,215
2018-12-18T00:56:18.591Z,203.7
2018-12-18T00:57:18.594Z,185.2
2018-12-18T00:58:18.623Z,176.8
2018-12-18T00:59:18.729Z,173.2
2018-12-18T01:00:18.620Z,171.5
2018-12-18T01:01:18.663Z,170.7
2018-12-18T01:02:18.635Z,170.3
2018-12-18T01:03:18.547Z,170.2
2018-12-18T01:04:18.546Z,170.1
2018-12-18T01:05:18.586Z,170
2018-12-18T01:06:18.668Z,170
2018-12-18T01:07:18.587Z,170
2018-12-18T01:08:18.595Z,170
2018-12-18T01:09:18.528Z,170
2018-12-18T01:10:18.608Z,170
2018-12-18T01:11:18.688Z,170
2018-12-18T01:12:18.606Z,170
2018-12-18T01:13:18.607Z,170
2018-12-18T01:14:18.686Z,170
2018-12-18T01:15:18.575Z,170
2018-12-18T01:16:18.660Z,170
2018-12-18T01:17:18.602Z,170
2018-12-18T01:18:18.605Z,170
2018-12-18T01:19:18.585Z,170
2018-12-18T01:20:18.520Z,170
2018-12-18T01:21:18.667Z,170
2018-12-18T01:22:18.640Z,170
2018-12-18T01:23:18.590Z,170
2018-12-18T01:24:18.580Z,170
2018-12-18T01:25:18.616Z,170
2018-12-18T01:26:18.587Z,170
2018-12-18T01:27:18.586Z,170
2018-12-18T01:28:18.627Z,170
2018-12-18T01:29:18.643Z,170
2018-12-18T01:30:18.540Z,170
2018-12-18T01:31:18.517Z,170
2018-12-18T01:32:18.585Z,170
2018-12-18T01:33:18.609Z,170
2018-12-18T01:34:18.632Z,170
2018-12-18T01:35:18.569Z,170
2018-12-18T01:36:18.499Z,170
2018-12-18T01:37:18.600Z,170
2018-12-18T01:38:18.708Z,170
2018-12-18T01:39:18.615Z,170
2018-12-18T01:40:18.597Z,170
2018-12-18T01:41:18.587Z,170
2018-12-18T01:42:18.556Z,170
2018-12-18T01:43:18.608Z,170
2018-12-18T01:44:18.550Z,170
2018-12-18T01:45:18.626Z,170
2018-12-18T01:46:18.578Z,170
2018-12-18T01:47:18.500Z,170
2018-12-18T01:48:18.573Z,170
2018-12-18T01:49:18.622Z,170
2018-12-18T01:50:18.561Z,170
2018-12-18T01:51:18.684Z,170
2018-12-18T01:52:18.587Z,170
2018-12-18T01:53:18.569Z,170
2018-12-18T01:54:18.572Z,170
2018-12-18T01:55:18.571Z,170
2018-12-18T01:56:18.550Z,170
2018-12-18T01:57:18.618Z,170
2018-12-18T01:58:18.504Z,170
2018-12-18T01:59:18.572Z,170
2018-12-18T02:00:18.632Z,170
2018-12-18T02:01:18.613Z,170
2018-12-18T02:02:18.657Z,170
2018-12-18T02:03:18.505Z,170
2018-12-18T02:04:18.504Z,170
2018-12-18T02:05:18.565Z,170
2018-12-18T02:06:18.605Z,170
2018-12-18T02:07:18.612Z,170
2018-12-18T02:08:18.611Z,170
2018-12-18T02:09:18.514Z,170
2018-12-18T02:10:18.645Z,170
2018-12-18T02:11:18.628Z,170
2018-12-18T02:12:18.570Z,170
2018-12-18T02:13:18.688Z,170
2018-12-18T02:14:18.485Z,170
2018-12-18T02:15:18.542Z,170
2018-12-18T02:16:18.573Z,170
2018-12-18T02:17:18.582Z,170
2018-12-18T02:18:18.631Z,170
2018-12-18T02:19:18.526Z,170
2018-12-18T02:20:18.576Z,170
2018-12-18T02:21:18.631Z,170
2018-12-18T02:22:18.620Z,170
2018-12-18T02:23:18.572Z,170
2018-12-18T02:24:18.555Z,170
2018-12-18T02:25:18.501Z,170
2018-12-18T02:26:18.587Z,170
2018-12-18T02:27:18.696Z,170
2018-12-18T02:28:18.538Z,170
2018-12-18T02:29:18.688Z,170
2018-12-18T02:30:18.524Z,170
2018-12-18T02:31:18.503Z,170
2018-12-18T02:32:18.645Z,170
2018-12-18T02:33:18.627Z,170
2018-12-18T02:34:18.550Z,170
2018-12-18T02:35:18.552Z,170
2018-12-18T02:36:18.473Z,170
2018-12-18T02:37:18.543Z,170
2018-12-18T02:38:18.648Z,170
2018-12-18T02:39:18.701Z,170
2018-12-18T02:40:18.572Z,170
2018-12-18T02:41:18.529Z,170
2018-12-18T02:42:18.529Z,170
2018-12-18T02:43:18.555Z,170
2018-12-18T02:44:18.611Z,170
2018-12-18T02:45:18.600Z,170
2018-12-18T02:46:18.648Z,170
2018-12-18T02:47:18.566Z,170
2018-12-18T02:48:18.534Z,170
2018-12-18T02:49:18.550Z,170
2018-12-18T02:50:18.615Z,170
2018-12-18T02:51:18.542Z,170
2018-12-18T02:52:18.600Z,170
2018-12-18T02:53:18.486Z,170
2018-12-18T02:54:18.611Z,170
2018-12-18T02:55:18.540Z,170
2018-12-18T02:56:18.570Z,170
2018-12-18T02:57:18.527Z,170
2018-12-18T02:58:18.577Z,170
2018-12-18T02:59:18.533Z,170
2018-12-18T03:00:18.537Z,170
2018-12-18T03:01:18.568Z,170
2018-12-18T03:02:18.562Z,170
2018-12-18T03:03:18.560Z,170
2018-12-18T03:04:25.165Z,170
2018-12-18T03:05:18.543Z,170
2018-12-18T03:06:18.547Z,170
2018-12-18T03:07:18.555Z,170
2018-12-18T03:08:18.603Z,170
2018-12-18T03:09:18.532Z,170
2018-12-18T03:10:18.528Z,170
2018-12-18T03:11:18.531Z,170
2018-12-18T03:12:18.545Z,170
2018-12-18T03:13:18.650Z,170
2018-12-18T03:14:18.490Z,170
2018-12-18T03:15:18.697Z,170
2018-12-18T03:16:18.521Z,170
2018-12-18T03:17:18.528Z,170
2018-12-18T03:18:18.620Z,170
2018-12-18T03:19:18.556Z,170
2018-12-18T03:20:18.453Z,170
2018-12-18T03:21:18.539Z,170
2018-12-18T03:22:18.538Z,170
2018-12-18T03:23:18.602Z,170
2018-12-18T03:24:18.529Z,170
2018-12-18T03:25:18.439Z,170
2018-12-18T03:26:18.588Z,170
2018-12-18T03:27:18.531Z,170
2018-12-18T03:28:18.516Z,170
2018-12-18T03:29:18.516Z,170
2018-12-18T03:30:18.561Z,170
2018-12-18T03:31:18.478Z,170
2018-12-18T03:32:18.557Z,170
2018-12-18T03:33:18.518Z,170
2018-12-18T03:34:18.595Z,170
2018-12-18T03:35:18.539Z,170
2018-12-18T03:36:18.501Z,170
2018-12-18T03:37:18.562Z,170
2018-12-18T03:38:18.518Z,170
2018-12-18T03:39:18.542Z,170
2018-12-18T03:40:18.589Z,170
2018-12-18T03:41:18.438Z,170
2018-12-18T03:42:18.510Z,170
2018-12-18T03:43:18.577Z,170
2018-12-18T03:44:18.539Z,170
2018-12-18T03:45:18.509Z,170
2018-12-18T03:46:18.540Z,170
2018-12-18T03:47:18.494Z,170
2018-12-18T03:48:18.502Z,170
2018-12-18T03:49:18.517Z,170
2018-12-18T03:50:18.534Z,170
2018-12-18T03:51:18.565Z,170
2018-12-18T03:52:18.425Z,170
2018-12-18T03:53:18.556Z,170
2018-12-18T03:54:18.550Z,170
2018-12-18T03:55:18.522Z,170
2018-12-18T03:56:18.482Z,170
2018-12-18T03:57:18.486Z,170
2018-12-18T03:58:18.484Z,170
2018-12-18T03:59:18.506Z,170
2018-12-18T04:00:18.528Z,170
2018-12-18T04:01:18.478Z,170
2018-12-18T04:02:18.517Z,170
2018-12-18T04:03:18.496Z,170
2018-12-18T04:04:18.494Z,171.1
2018-12-18T04:05:18.485Z,182.8
2018-12-18T04:06:18.513Z,187.9
2018-12-18T04:07:18.702Z,190.4
2018-12-18T04:08:18.844Z,191.5
2018-12-18T04:09:18.450Z,192
2018-12-18T04:10:18.527Z,192.3
2018-12-18T04:11:18.569Z,192.4
2018-12-18T04:12:18.505Z,192.5
2018-12-18T04:13:18.522Z,192.5
2018-12-18T04:14:18.533Z,192.5
2018-12-18T04:15:18.606Z,192.5
2018-12-18T04:16:18.477Z,192.5
2018-12-18T04:17:18.541Z,192.5
2018-12-18T04:18:18.535Z,192.5
2018-12-18T04:19:18.432Z,192.5
2018-12-18T04:20:18.563Z,203.6
2018-12-18T04:21:18.575Z,209.7
2018-12-18T04:22:18.507Z,212
2018-12-18T04:23:18.566Z,213.6
2018-12-18T04:24:18.495Z,214.4
2018-12-18T04:25:18.408Z,214.7
2018-12-18T04:26:18.585Z,214.9
2018-12-18T04:27:18.524Z,214.9
2018-12-18T04:28:18.566Z,215
2018-12-18T04:29:18.527Z,215
2018-12-18T04:30:18.452Z,215
2018-12-18T04:31:18.462Z,215
2018-12-18T04:32:18.592Z,215
2018-12-18T04:33:18.503Z,215
2018-12-18T04:34:18.499Z,215
2018-12-18T04:35:18.609Z,215
2018-12-18T04:36:18.426Z,215
2018-12-18T04:37:18.569Z,215
2018-12-18T04:38:18.501Z,215
2018-12-18T04:39:18.508Z,215
2018-12-18T04:40:18.477Z,215
2018-12-18T04:41:18.439Z,215
2018-12-18T04:42:18.492Z,215
2018-12-18T04:43:18.500Z,215
2018-12-18T04:44:18.485Z,215
2018-12-18T04:45:19.355Z,215
2018-12-18T04:46:18.477Z,215
2018-12-18T04:47:18.489Z,215
2018-12-18T04:48:18.503Z,215
2018-12-18T04:49:18.484Z,215
2018-12-18T04:50:18.501Z,215
2018-12-18T04:51:18.499Z,215
2018-12-18T04:52:18.469Z,215
2018-12-18T04:53:18.477Z,215
2018-12-18T04:54:18.475Z,215
2018-12-18T04:55:18.557Z,215
2018-12-18T04:56:18.553Z,215
2018-12-18T04:57:18.514Z,215
2018-12-18T04:58:18.530Z,215
2018-12-18T04:59:18.551Z,215
2018-12-18T05:00:18.476Z,215
2018-12-18T05:01:18.495Z,215
2018-12-18T05:02:18.453Z,215
2018-12-18T05:03:18.501Z,215
2018-12-18T05:04:18.499Z,215
2018-12-18T05:05:18.511Z,215
2018-12-18T05:06:18.471Z,215
2018-12-18T05:07:18.512Z,215
2018-12-18T05:08:18.496Z,215
2018-12-18T05:09:18.401Z,215
2018-12-18T05:10:18.565Z,215
2018-12-18T05:11:18.473Z,215
2018-12-18T05:12:18.478Z,215
2018-12-18T05:13:18.499Z,215
2018-12-18T05:14:18.472Z,215
2018-12-18T05:15:18.511Z,215
2018-12-18T05:16:18.497Z,215
2018-12-18T05:17:18.448Z,215
2018-12-18T05:18:18.492Z,215
2018-12-18T05:19:18.417Z,215
2018-12-18T05:20:18.475Z,215
2018-12-18T05:21:18.499Z,215
2018-12-18T05:22:18.505Z,215
2018-12-18T05:23:18.472Z,215
2018-12-18T05:24:18.437Z,215
2018-12-18T05:25:18.378Z,215
2018-12-18T05:26:18.538Z,215
2018-12-18T05:27:18.537Z,215
2018-12-18T05:28:19.764Z,215
2018-12-18T05:29:18.429Z,215
2018-12-18T05:30:18.419Z,215
2018-12-18T05:31:18.452Z,215
2018-12-18T05:32:18.471Z,215
2018-12-18T05:33:18.444Z,215
2018-12-18T05:34:18.454Z,215
2018-12-18T05:35:18.475Z,215
2018-12-18T05:36:18.469Z,215
2018-12-18T05:37:18.458Z,215
2018-12-18T05:38:18.590Z,215
2018-12-18T05:39:18.440Z,215
2018-12-18T05:40:18.451Z,215
2018-12-18T05:41:18.516Z,215
2018-12-18T05:42:18.449Z,215
2018-12-18T05:43:18.468Z,215
2018-12-18T05:44:18.536Z,215
2018-12-18T05:45:18.451Z,215
2018-12-18T05:46:18.466Z,215
2018-12-18T05:47:18.465Z,215
2018-12-18T05:48:18.504Z,215
2018-12-18T05:49:18.457Z,215
2018-12-18T05:50:18.527Z,215
2018-12-18T05:51:18.454Z,215
2018-12-18T05:52:18.364Z,215
2018-12-18T05:53:18.464Z,215
2018-12-18T05:54:18.438Z,215
2018-12-18T05:55:18.499Z,215
2018-12-18T05:56:18.450Z,215
2018-12-18T05:57:18.445Z,215
2018-12-18T05:58:18.379Z,215
2018-12-18T05:59:18.517Z,215
2018-12-18T06:00:18.459Z,215
2018-12-18T06:01:18.440Z,215
2018-12-18T06:02:18.422Z,215
2018-12-18T06:03:18.355Z,215
2018-12-18T06:04:18.494Z,215
2018-12-18T06:05:18.513Z,215
2018-12-18T06:06:18.439Z,215
2018-12-18T06:07:18.497Z,215
2018-12-18T06:08:18.392Z,215
2018-12-18T06:09:18.419Z,215
2018-12-18T06:10:18.468Z,215
2018-12-18T06:11:18.442Z,215
2018-12-18T06:12:18.438Z,215
2018-12-18T06:13:18.417Z,215
2018-12-18T06:14:18.422Z,215
2018-12-18T06:15:18.414Z,215
2018-12-18T06:16:18.420Z,215
2018-12-18T06:17:18.422Z,215
2018-12-18T06:18:18.464Z,215
2018-12-18T06:19:18.477Z,215
2018-12-18T06:20:18.374Z,215
2018-12-18T06:21:18.508Z,215
2018-12-18T06:22:18.437Z,215
2018-12-18T06:23:18.511Z,215
2018-12-18T06:24:18.514Z,215
2018-12-18T06:25:20.172Z,215
2018-12-18T06:26:18.458Z,215
2018-12-18T06:27:18.503Z,215
2018-12-18T06:28:18.450Z,215
2018-12-18T06:29:18.479Z,215
2018-12-18T06:30:18.442Z,215
2018-12-18T06:31:18.350Z,215
2018-12-18T06:32:18.403Z,215
2018-12-18T06:33:18.431Z,215
2018-12-18T06:34:18.493Z,215
2018-12-18T06:35:18.461Z,215
2018-12-18T06:36:18.348Z,215
2018-12-18T06:37:18.411Z,215
2018-12-18T06:38:18.482Z,215
2018-12-18T06:39:18.465Z,215
2018-12-18T06:40:18.418Z,215
2018-12-18T06:41:18.357Z,215
2018-12-18T06:42:18.375Z,215
2018-12-18T06:43:18.399Z,215
2018-12-18T06:44:18.487Z,215
2018-12-18T06:45:18.401Z,215
2018-12-18T06:46:18.404Z,215
2018-12-18T06:47:18.419Z,215
2018-12-18T06:48:18.397Z,215
2018-12-18T06:49:18.393Z,215
2018-12-18T06:50:18.466Z,215
2018-12-18T06:51:18.440Z,215
2018-12-18T06:52:18.336Z,215
2018-12-18T06:53:18.462Z,215
2018-12-18T06:54:18.395Z,215
2018-12-18T06:55:18.408Z,215
2018-12-18T06:56:18.413Z,215
2018-12-18T06:57:18.410Z,215
2018-12-18T06:58:18.422Z,215
2018-12-18T06:59:18.394Z,215
2018-12-18T07:00:18.440Z,215
2018-12-18T07:01:18.420Z,215
2018-12-18T07:02:18.448Z,215
2018-12-18T07:03:18.340Z,215
2018-12-18T07:04:18.384Z,215
2018-12-18T07:05:20.621Z,215
2018-12-18T07:06:18.499Z,215
2018-12-18T07:07:18.393Z,215
2018-12-18T07:08:18.334Z,215
2018-12-18T07:09:18.350Z,215
2018-12-18T07:10:18.413Z,215
2018-12-18T07:11:18.454Z,215
2018-12-18T07:12:18.428Z,215
2018-12-18T07:13:18.413Z,215
2018-12-18T07:14:18.352Z,215
2018-12-18T07:15:18.380Z,215
2018-12-18T07:16:18.465Z,215
2018-12-18T07:17:18.451Z,215
2018-12-18T07:18:18.405Z,215
2018-12-18T07:19:18.343Z,215
2018-12-18T07:20:18.336Z,215
2018-12-18T07:21:18.377Z,215
2018-12-18T07:22:18.451Z,215
2018-12-18T07:23:18.486Z,215
2018-12-18T07:24:18.400Z,215
2018-12-18T07:25:18.341Z,215
2018-12-18T07:26:18.389Z,215
2018-12-18T07:27:18.407Z,194.6
2018-12-18T07:28:18.436Z,181
2018-12-18T07:29:18.404Z,175
2018-12-18T07:30:18.373Z,172.3
2018-12-18T07:31:18.312Z,171
2018-12-18T07:32:18.393Z,170.5
2018-12-18T07:33:18.374Z,170.2
2018-12-18T07:34:18.455Z,170.1
2018-12-18T07:35:24.447Z,170
2018-12-18T07:36:18.384Z,170
2018-12-18T07:37:18.382Z,170
2018-12-18T07:38:18.436Z,170
2018-12-18T07:39:18.398Z,170
2018-12-18T07:40:18.364Z,170
2018-12-18T07:41:18.372Z,170
2018-12-18T07:42:18.377Z,170
2018-12-18T07:43:18.386Z,170
2018-12-18T07:44:18.413Z,170
2018-12-18T07:45:18.357Z,170
2018-12-18T07:46:18.510Z,170
2018-12-18T07:47:18.372Z,170
2018-12-18T07:48:18.357Z,170
2018-12-18T07:49:18.389Z,170
2018-12-18T07:50:18.389Z,170
2018-12-18T07:51:18.392Z,170
2018-12-18T07:52:18.364Z,170
2018-12-18T07:53:18.467Z,170
2018-12-18T07:54:18.386Z,170
2018-12-18T07:55:18.373Z,170
2018-12-18T07:56:18.342Z,170
2018-12-18T07:57:18.364Z,170
2018-12-18T07:58:18.350Z,170
2018-12-18T07:59:18.351Z,170
2018-12-18T08:00:18.356Z,170
2018-12-18T08:01:18.431Z,170
2018-12-18T08:02:18.433Z,170
2018-12-18T08:03:18.327Z,170
2018-12-18T08:04:18.382Z,170
2018-12-18T08:05:18.367Z,170
2018-12-18T08:06:18.419Z,170
2018-12-18T08:07:18.340Z,170
2018-12-18T08:08:18.324Z,170
2018-12-18T08:09:18.385Z,170
2018-12-18T08:10:18.349Z,170
2018-12-18T08:11:18.427Z,170
2018-12-18T08:12:18.350Z,170
2018-12-18T08:13:18.441Z,170
2018-12-18T08:14:18.286Z,170
2018-12-18T08:15:18.370Z,170
2018-12-18T08:16:18.371Z,170
2018-12-18T08:17:18.378Z,170
2018-12-18T08:18:18.445Z,170
2018-12-18T08:19:18.328Z,170
2018-12-18T08:20:18.386Z,170
2018-12-18T08:21:18.374Z,170
2018-12-18T08:22:18.437Z,170
2018-12-18T08:23:18.430Z,170
2018-12-18T08:24:18.368Z,170
2018-12-18T08:25:18.332Z,170
2018-12-18T08:26:18.378Z,170
2018-12-18T08:27:18.563Z,170
2018-12-18T08:28:18.443Z,170
2018-12-18T08:29:18.427Z,170
2018-12-18T08:30:18.287Z,170
2018-12-18T08:31:18.343Z,170
2018-12-18T08:32:18.455Z,170
2018-12-18T08:33:18.494Z,170
2018-12-18T08:34:18.370Z,170
2018-12-18T08:35:18.376Z,170
2018-12-18T08:36:18.319Z,170
2018-12-18T08:37:18.372Z,170
2018-12-18T08:38:18.421Z,170
2018-12-18T08:39:18.466Z,170
2018-12-18T08:40:18.393Z,170
2018-12-18T08:41:18.329Z,170
2018-12-18T08:42:18.373Z,170
2018-12-18T08:43:18.413Z,170
2018-12-18T08:44:18.375Z,170
2018-12-18T08:45:18.443Z,170
2018-12-18T08:46:18.352Z,170
2018-12-18T08:47:18.297Z,170
2018-12-18T08:48:18.355Z,170
2018-12-18T08:49:18.353Z,170
2018-12-18T08:50:18.443Z,170
2018-12-18T08:51:18.335Z,170
2018-12-18T08:52:18.295Z,170
2018-12-18T08:53:18.344Z,170
2018-12-18T08:54:18.350Z,170
2018-12-18T08:55:18.434Z,161.3
2018-12-18T08:56:18.358Z,141.5
2018-12-18T08:57:18.280Z,132.4
2018-12-18T08:58:18.354Z,128.3
2018-12-18T08:59:18.352Z,126.6
2018-12-18T09:00:18.444Z,125.7
2018-12-18T09:01:18.348Z,125.3
2018-12-18T09:02:18.364Z,125.2
2018-12-18T09:03:18.280Z,125.1
2018-12-18T09:04:18.428Z,125
2018-12-18T09:05:18.338Z,125
2018-12-18T09:06:18.440Z,125
2018-12-18T09:07:18.369Z,125
2018-12-18T09:08:18.303Z,125
2018-12-18T09:09:18.371Z,125
2018-12-18T09:10:18.350Z,125
2018-12-18T09:11:18.450Z,125
2018-12-18T09:12:18.322Z,125
2018-12-18T09:13:18.326Z,125
2018-12-18T09:14:18.296Z,125
2018-12-18T09:15:18.415Z,125
2018-12-18T09:16:18.428Z,125
2018-12-18T09:17:18.390Z,125
2018-12-18T09:18:18.387Z,125
2018-12-18T09:19:18.288Z,125
2018-12-18T09:20:18.319Z,125
2018-12-18T09:21:18.384Z,125
2018-12-18T09:22:18.341Z,125
2018-12-18T09:23:18.358Z,125
2018-12-18T09:24:18.340Z,125
2018-12-18T09:25:18.311Z,125
2018-12-18T09:26:18.423Z,125
2018-12-18T09:27:18.350Z,125
2018-12-18T09:28:18.330Z,125
2018-12-18T09:29:18.370Z,125
2018-12-18T09:30:18.278Z,125
2018-12-18T09:31:18.398Z,121
2018-12-18T09:32:18.344Z,109.4
2018-12-18T09:33:18.328Z,105.6
2018-12-18T09:34:18.354Z,104
2018-12-18T09:35:18.318Z,103.2
2018-12-18T09:36:18.348Z,102.8
2018-12-18T09:37:18.423Z,102.6
2018-12-18T09:38:18.340Z,102.6
2018-12-18T09:39:18.333Z,102.5
2018-12-18T09:40:18.359Z,102.5
2018-12-18T09:41:18.294Z,102.5
2018-12-18T09:42:18.415Z,102.5
2018-12-18T09:43:18.387Z,102.5
2018-12-18T09:44:18.339Z,102.5
2018-12-18T09:45:18.332Z,102.5
2018-12-18T09:46:18.284Z,102.5
2018-12-18T09:47:18.331Z,102.5
2018-12-18T09:48:18.387Z,102.5
2018-12-18T09:49:18.319Z,102.5
2018-12-18T09:50:18.325Z,102.5
2018-12-18T09:51:18.357Z,102.5
2018-12-18T09:52:18.347Z,102.5
2018-12-18T09:53:18.344Z,102.5
2018-12-18T09:54:18.341Z,102.5
2018-12-18T09:55:18.298Z,102.5
2018-12-18T09:56:18.347Z,102.5
2018-12-18T09:57:18.394Z,102.5
2018-12-18T09:58:18.244Z,102.5
2018-12-18T09:59:18.403Z,102.5
2018-12-18T10:00:18.335Z,102.5
2018-12-18T10:01:18.323Z,102.5
2018-12-18T10:02:18.322Z,102.5
2018-12-18T10:03:18.261Z,102.5
2018-12-18T10:04:18.419Z,102.5
2018-12-18T10:05:18.315Z,102.5
2018-12-18T10:06:18.316Z,102.5
2018-12-18T10:07:18.313Z,102.5
2018-12-18T10:08:18.265Z,102.5
2018-12-18T10:09:18.340Z,102.5
2018-12-18T10:10:18.336Z,102.5
2018-12-18T10:11:18.323Z,102.5
2018-12-18T10:12:18.339Z,102.5
2018-12-18T10:13:18.342Z,102.5
2018-12-18T10:14:18.354Z,102.5
2018-12-18T10:15:18.344Z,102.5
2018-12-18T10:16:18.323Z,102.5
2018-12-18T10:17:18.443Z,102.5
2018-12-18T10:18:18.350Z,102.5
2018-12-18T10:19:18.314Z,102.5
2018-12-18T10:20:18.291Z,102.5
2018-12-18T10:21:18.379Z,102.5
2018-12-18T10:22:18.370Z,102.5
2018-12-18T10:23:18.346Z,102.5
2018-12-18T10:24:19.053Z,102.5
2018-12-18T10:25:18.319Z,102.5
2018-12-18T10:26:18.337Z,113.9
2018-12-18T10:27:18.370Z,119.9
2018-12-18T10:28:18.326Z,122.7
2018-12-18T10:29:18.383Z,123.9
2018-12-18T10:30:18.303Z,124.5
2018-12-18T10:31:18.365Z,124.8
2018-12-18T10:32:18.311Z,124.9
2018-12-18T10:33:18.304Z,124.9
2018-12-18T10:34:18.354Z,125
2018-12-18T10:35:18.275Z,125
2018-12-18T10:36:18.282Z,125
2018-12-18T10:37:18.316Z,125
2018-12-18T10:38:18.349Z,125
2018-12-18T10:39:18.370Z,125
2018-12-18T10:40:19.292Z,125
2018-12-18T10:41:18.322Z,125
2018-12-18T10:42:18.313Z,125
2018-12-18T10:43:18.306Z,103.9
2018-12-18T10:44:18.318Z,90.6
2018-12-18T10:45:18.311Z,81.6
2018-12-18T10:46:18.326Z,80.7
2018-12-18T10:47:18.330Z,80.3
2018-12-18T10:48:18.324Z,80.2
2018-12-18T10:49:18.370Z,77.9
2018-12-18T10:50:18.310Z,77.6
2018-12-18T10:51:18.337Z,78.9
2018-12-18T10:52:18.242Z,79.5
2018-12-18T10:53:18.332Z,79.8
2018-12-18T10:54:18.397Z,79.9
2018-12-18T10:55:18.331Z,79.9
2018-12-18T10:56:18.315Z,80
2018-12-18T10:57:18.263Z,80
2018-12-18T10:58:25.109Z,80
2018-12-18T10:59:20.099Z,80
2018-12-18T11:00:18.346Z,80
2018-12-18T11:01:18.313Z,80
2018-12-18T11:02:18.330Z,80
2018-12-18T11:03:18.248Z,84.9
2018-12-18T11:04:18.391Z,217
2018-12-18T11:05:18.312Z,232.7
2018-12-18T11:06:18.352Z,235.7
2018-12-18T11:07:18.331Z,236.7
2018-12-18T11:08:18.243Z,237.2
2018-12-18T11:09:18.340Z,237.3
2018-12-18T11:10:18.315Z,224.9
2018-12-18T11:11:18.426Z,218.7
2018-12-18T11:12:18.300Z,214.7
2018-12-18T11:13:18.328Z,212.1
2018-12-18T11:14:18.270Z,213.6
2018-12-18T11:15:18.398Z,214.4
2018-12-18T11:16:18.325Z,214.7
2018-12-18T11:17:18.375Z,214.9
2018-12-18T11:18:18.304Z,214.9
2018-12-18T11:19:18.275Z,215
2018-12-18T11:20:18.300Z,215
2018-12-18T11:21:18.391Z,215.8
2018-12-18T11:22:18.335Z,215.4
2018-12-18T11:23:19.719Z,215.2
2018-12-18T11:24:18.382Z,218.7
2018-12-18T11:25:18.251Z,216.7
2018-12-18T11:26:18.316Z,215.8
2018-12-18T11:27:18.362Z,215.4
2018-12-18T11:28:18.382Z,215.2
2018-12-18T11:29:18.328Z,215.1
2018-12-18T11:30:18.253Z,198.9
2018-12-18T11:31:18.378Z,195.4
2018-12-18T11:32:18.417Z,193.8
2018-12-18T11:33:18.329Z,193.1
2018-12-18T11:34:18.340Z,192.8
2018-12-18T11:35:18.376Z,192.6
2018-12-18T11:36:20.215Z,192.6
2018-12-18T11:37:18.342Z,192.5
2018-12-18T11:38:18.327Z,200.3
2018-12-18T11:39:18.313Z,208.4
2018-12-18T11:40:18.326Z,211.9
2018-12-18T11:41:18.349Z,213.5
2018-12-18T11:42:18.333Z,214.3
2018-12-18T11:43:18.327Z,214.7
2018-12-18T11:44:18.311Z,214.9
2018-12-18T11:45:18.341Z,214.9
2018-12-18T11:46:18.335Z,215
2018-12-18T11:47:18.263Z,215
2018-12-18T11:48:18.406Z,215
2018-12-18T11:49:18.319Z,215
2018-12-18T11:50:18.326Z,215
2018-12-18T11:51:18.358Z,215
2018-12-18T11:52:18.355Z,215
2018-12-18T11:53:18.322Z,215
2018-12-18T11:54:18.405Z,215
2018-12-18T11:55:18.338Z,215
2018-12-18T11:56:18.314Z,215
2018-12-18T11:57:18.252Z,215
2018-12-18T11:58:18.371Z,215
2018-12-18T11:59:18.948Z,215
2018-12-18T12:00:18.375Z,215
2018-12-18T12:01:18.309Z,215
2018-12-18T12:02:18.299Z,215
2018-12-18T12:03:18.251Z,215
2018-12-18T12:04:18.306Z,215
2018-12-18T12:05:18.378Z,215
2018-12-18T12:06:24.108Z,215
2018-12-18T12:07:18.314Z,215
2018-12-18T12:08:18.372Z,215
2018-12-18T12:09:18.274Z,188.5
2018-12-18T12:10:18.333Z,149.4
2018-12-18T12:11:18.313Z,134.7
2018-12-18T12:12:18.327Z,129.2
2018-12-18T12:13:18.406Z,126.8
2018-12-18T12:14:18.270Z,125.9
2018-12-18T12:15:18.316Z,125.4
2018-12-18T12:16:18.307Z,125.2
2018-12-18T12:17:18.299Z,125.1
2018-12-18T12:18:18.403Z,125
2018-12-18T12:19:18.262Z,125
2018-12-18T12:20:18.320Z,125
2018-12-18T12:21:18.295Z,125
2018-12-18T12:22:18.393Z,125
2018-12-18T12:23:19.014Z,125
2018-12-18T12:24:18.231Z,125
2018-12-18T12:25:18.303Z,125
2018-12-18T12:26:18.294Z,125
2018-12-18T12:27:18.338Z,125
2018-12-18T12:28:18.327Z,125
2018-12-18T12:29:18.356Z,125
2018-12-18T12:30:18.226Z,125
2018-12-18T12:31:18.342Z,125
2018-12-18T12:32:18.296Z,125
2018-12-18T12:33:18.294Z,125
2018-12-18T12:34:18.381Z,125
2018-12-18T12:35:18.258Z,125
2018-12-18T12:36:18.287Z,125
2018-12-18T12:37:18.306Z,125
2018-12-18T12:38:18.306Z,125
2018-12-18T12:39:18.376Z,125
2018-12-18T12:40:18.324Z,125
2018-12-18T12:41:18.281Z,125
2018-12-18T12:42:18.310Z,125
2018-12-18T12:43:18.292Z,125
2018-12-18T12:44:18.327Z,125
2018-12-18T12:45:18.284Z,125
2018-12-18T12:46:18.238Z,125
2018-12-18T12:47:18.252Z,125
2018-12-18T12:48:18.319Z,125
2018-12-18T12:49:18.381Z,125
2018-12-18T12:50:18.243Z,125
2018-12-18T12:51:18.294Z,125
2018-12-18T12:52:18.252Z,125
2018-12-18T12:53:18.305Z,125
2018-12-18T12:54:18.391Z,125
2018-12-18T12:55:18.351Z,125
2018-12-18T12:56:18.293Z,125
2018-12-18T12:57:18.254Z,125
2018-12-18T12:58:18.327Z,125
2018-12-18T12:59:18.295Z,125
2018-12-18T13:00:20.454Z,125
2018-12-18T13:01:22.735Z,125
2018-12-18T13:02:25.079Z,125
2018-12-18T13:03:18.242Z,125
2018-12-18T13:04:18.293Z,125
2018-12-18T13:05:18.399Z,125
2018-12-18T13:06:22.115Z,125
2018-12-18T13:07:23.256Z,125
2018-12-18T13:08:20.921Z,125
2018-12-18T13:09:22.494Z,125
2018-12-18T13:10:18.351Z,125
2018-12-18T13:11:18.302Z,125
2018-12-18T13:12:18.244Z,125
2018-12-18T13:13:18.356Z,125
2018-12-18T13:14:18.256Z,125
2018-12-18T13:15:19.568Z,125
2018-12-18T13:16:18.280Z,125
2018-12-18T13:17:18.331Z,125
2018-12-18T13:18:18.333Z,125
2018-12-18T13:19:18.251Z,125
2018-12-18T13:20:18.386Z,125
2018-12-18T13:21:18.304Z,125
2018-12-18T13:22:18.293Z,125
2018-12-18T13:23:18.393Z,125
2018-12-18T13:24:18.264Z,125
2018-12-18T13:25:18.242Z,125
2018-12-18T13:26:23.499Z,125
2018-12-18T13:27:23.887Z,125
2018-12-18T13:28:23.709Z,125
2018-12-18T13:29:18.309Z,125
2018-12-18T13:30:18.241Z,125
2018-12-18T13:31:18.391Z,125
2018-12-18T13:32:18.389Z,125